Time;durP1;ratioP1;P1;durP2;ratioP2;P2;SDS_P1;SDS_P2;PMS_P1;PMS_P2;Temp;Humidity;BMP_temperature;BMP_pressure;BME280_temperature;BME280_humidity;BME280_pressure;Samples;Min_cycle;Max_cycle;Signal;HPM_P1;HPM_P2
2023/09/27 00:02:59;;;;;;;28.40;23.40;;;;;;;15.08;89.66;99564.77;225718;1280;23789;-72
2023/09/27 00:08:02;;;;;;;27.00;23.20;;;;;;;15.01;89.84;99568.38;225506;1278;139083;-72
2023/09/27 00:13:04;;;;;;;25.70;22.10;;;;;;;14.95;89.90;99570.56;225516;1278;138640;-71
2023/09/27 00:18:06;;;;;;;28.00;23.60;;;;;;;14.89;89.91;99568.30;225566;1281;138869;-73
2023/09/27 00:23:08;;;;;;;26.80;22.40;;;;;;;14.85;90.05;99566.69;225624;1278;138752;-72
2023/09/27 00:28:10;;;;;;;27.50;22.80;;;;;;;14.79;90.32;99563.11;225498;1281;138907;-72
2023/09/27 00:33:12;;;;;;;25.70;22.60;;;;;;;14.73;90.22;99565.55;225552;1281;22532;-70
2023/09/27 00:38:15;;;;;;;27.40;24.00;;;;;;;14.66;90.39;99566.99;225528;1278;138703;-71
2023/09/27 00:43:33;;;;;;;28.30;23.50;;;;;;;14.61;90.66;99563.52;225561;1281;138746;-73
2023/09/27 00:48:37;;;;;;;27.70;24.80;;;;;;;14.56;90.68;99560.13;225558;1267;138809;-71
2023/09/27 00:53:41;;;;;;;27.10;23.60;;;;;;;14.52;90.73;99560.44;225630;1278;138882;-71
2023/09/27 00:58:44;;;;;;;28.00;24.90;;;;;;;14.49;90.74;99558.61;225604;1278;138969;-71
2023/09/27 01:03:47;;;;;;;30.70;25.60;;;;;;;14.44;90.91;99558.97;225522;1277;138972;-72
2023/09/27 01:08:49;;;;;;;32.10;26.90;;;;;;;14.40;91.12;99562.79;225719;1281;22566;-72
2023/09/27 01:13:51;;;;;;;29.00;25.70;;;;;;;14.41;91.27;99563.08;225593;1280;139460;-72
2023/09/27 01:18:53;;;;;;;29.20;25.20;;;;;;;14.39;91.48;99564.55;225596;1281;138724;-72
2023/09/27 01:23:56;;;;;;;30.90;26.20;;;;;;;14.35;91.14;99569.77;225598;1278;139416;-72
2023/09/27 01:28:58;;;;;;;32.20;28.50;;;;;;;14.30;91.14;99566.93;225584;1278;139605;-73
2023/09/27 01:34:00;;;;;;;28.80;25.40;;;;;;;14.25;91.38;99567.67;225402;1281;138812;-72
2023/09/27 01:39:02;;;;;;;32.00;26.40;;;;;;;14.21;91.28;99569.33;225515;1281;224341;-72
2023/09/27 01:44:04;;;;;;;34.10;28.10;;;;;;;14.16;91.32;99566.25;225581;1279;139038;-72
2023/09/27 01:49:07;;;;;;;33.50;28.70;;;;;;;14.11;91.23;99566.69;225554;1278;138905;-71
2023/09/27 01:54:08;;;;;;;32.00;27.00;;;;;;;14.07;91.41;99563.90;225594;1281;139820;-72
2023/09/27 01:59:10;;;;;;;28.30;25.30;;;;;;;14.04;91.54;99561.42;225582;1278;139039;-72
2023/09/27 02:04:13;;;;;;;27.70;24.30;;;;;;;13.99;91.29;99557.30;225597;1281;139071;-73
2023/09/27 02:09:16;;;;;;;31.30;26.50;;;;;;;13.94;91.64;99556.45;225699;1281;23420;-72
2023/09/27 02:14:18;;;;;;;31.30;27.20;;;;;;;13.90;91.61;99554.46;225509;1281;138502;-72
2023/09/27 02:19:20;;;;;;;29.20;25.40;;;;;;;13.86;91.62;99553.71;225515;1281;139065;-72
2023/09/27 02:24:22;;;;;;;30.40;25.90;;;;;;;13.81;91.84;99551.82;225575;1281;138981;-72
2023/09/27 02:29:23;;;;;;;30.90;27.50;;;;;;;13.80;91.61;99554.15;225503;1281;139385;-72
2023/09/27 02:34:28;;;;;;;36.50;28.90;;;;;;;13.78;92.09;99553.25;225510;1281;139878;-72
2023/09/27 02:39:30;;;;;;;39.50;30.00;;;;;;;13.78;91.91;99549.56;225689;1281;24455;-72
2023/09/27 02:44:32;;;;;;;58.30;29.20;;;;;;;13.82;92.55;99542.59;225679;1281;22536;-72
2023/09/27 02:49:37;;;;;;;52.40;28.00;;;;;;;13.88;92.67;99539.52;225608;1278;139891;-72
2023/09/27 02:54:39;;;;;;;31.30;26.00;;;;;;;13.89;92.31;99547.13;225653;1278;139780;-71
2023/09/27 02:59:41;;;;;;;35.10;27.00;;;;;;;13.85;92.35;99550.80;225615;1281;139957;-72
2023/09/27 03:04:43;;;;;;;35.00;27.60;;;;;;;13.81;92.42;99546.63;225609;1275;138934;-74
2023/09/27 03:09:45;;;;;;;28.40;25.10;;;;;;;13.77;92.16;99546.13;225626;1278;138821;-72
2023/09/27 03:14:47;;;;;;;27.10;24.30;;;;;;;13.73;92.41;99551.18;225527;1281;22533;-71
2023/09/27 03:19:49;;;;;;;31.50;25.60;;;;;;;13.67;92.19;99549.10;225533;1281;138583;-71
2023/09/27 03:24:51;;;;;;;32.70;26.70;;;;;;;13.64;92.45;99544.94;225426;1280;139855;-72
2023/09/27 03:29:53;;;;;;;37.80;27.00;;;;;;;13.62;92.52;99547.23;225527;1281;139148;-72
2023/09/27 03:34:55;;;;;;;30.00;26.80;;;;;;;13.58;92.35;99541.79;225548;1278;139592;-72
2023/09/27 03:39:57;;;;;;;50.00;27.40;;;;;;;13.54;92.42;99542.92;225540;1278;138859;-72
2023/09/27 03:44:59;;;;;;;56.80;25.40;;;;;;;13.50;92.46;99548.90;225661;1281;22555;-72
2023/09/27 03:50:01;;;;;;;44.90;26.10;;;;;;;13.47;92.50;99556.39;225550;1281;138749;-71
2023/09/27 03:55:04;;;;;;;43.90;26.20;;;;;;;13.44;92.35;99555.48;225566;1279;138818;-72
2023/09/27 04:00:13;;;;;;;45.90;25.00;;;;;;;13.44;92.62;99553.23;225558;1281;139433;-71
2023/09/27 04:05:22;;;;;;;57.00;25.10;;;;;;;13.45;92.78;99557.34;225563;1280;138862;-71
2023/09/27 04:10:25;;;;;;;41.90;24.00;;;;;;;13.43;92.63;99557.39;225532;1281;138779;-72
2023/09/27 04:15:27;;;;;;;40.00;23.00;;;;;;;13.39;92.54;99559.11;225678;1280;22555;-71
2023/09/27 04:20:29;;;;;;;44.00;22.80;;;;;;;13.31;92.20;99557.43;225581;1281;139532;-71
2023/09/27 04:25:32;;;;;;;35.00;22.60;;;;;;;13.23;92.24;99557.69;225586;1281;139564;-71
2023/09/27 04:30:34;;;;;;;48.00;21.50;;;;;;;13.17;92.13;99555.89;225583;1280;138790;-72
2023/09/27 04:35:36;;;;;;;29.60;21.20;;;;;;;13.08;92.01;99562.73;225561;1281;138931;-72
2023/09/27 04:40:38;;;;;;;29.20;21.00;;;;;;;13.01;92.32;99572.17;225526;1278;139065;-72
2023/09/27 04:45:40;;;;;;;24.90;19.70;;;;;;;12.94;92.14;99574.67;225571;1281;139026;-72
2023/09/27 04:50:42;;;;;;;27.80;19.70;;;;;;;12.87;92.08;99580.47;225706;1279;22559;-72
2023/09/27 04:55:44;;;;;;;33.20;20.00;;;;;;;12.81;92.27;99585.02;225623;1278;138511;-72
2023/09/27 05:00:46;;;;;;;29.90;20.40;;;;;;;12.81;92.49;99589.86;225590;1278;139562;-72
2023/09/27 05:05:48;;;;;;;33.60;20.00;;;;;;;12.83;92.83;99593.36;225485;1281;138832;-71
2023/09/27 05:10:50;;;;;;;22.80;19.70;;;;;;;12.85;92.75;99594.54;225533;1278;138933;-72
2023/09/27 05:15:52;;;;;;;25.70;19.60;;;;;;;12.84;92.62;99595.27;225624;1281;139103;-74
2023/09/27 05:20:55;;;;;;;23.90;20.10;;;;;;;12.84;92.49;99602.96;225679;1281;25252;-72
2023/09/27 05:25:57;;;;;;;21.30;19.10;;;;;;;12.84;92.39;99602.90;225570;1278;138688;-73
2023/09/27 05:31:00;;;;;;;20.80;18.70;;;;;;;12.84;92.49;99601.17;225413;1281;138969;-73
2023/09/27 05:36:02;;;;;;;22.20;19.90;;;;;;;12.85;92.49;99595.20;225399;1276;138917;-73
2023/09/27 05:41:04;;;;;;;21.30;19.30;;;;;;;12.90;92.86;99596.87;225387;1281;138851;-73
2023/09/27 05:46:06;;;;;;;20.70;18.70;;;;;;;12.98;93.11;99599.83;225311;1281;138953;-72
2023/09/27 05:51:08;;;;;;;22.20;19.90;;;;;;;13.08;93.16;99600.94;225416;1276;22583;-73
2023/09/27 05:56:10;;;;;;;22.80;20.50;;;;;;;13.19;93.24;99601.69;225023;1270;138734;-75
2023/09/27 06:01:12;;;;;;;22.00;19.80;;;;;;;13.33;93.53;99599.96;225030;1270;138810;-74
2023/09/27 06:06:15;;;;;;;21.50;19.40;;;;;;;13.50;93.71;99599.25;224993;1265;138764;-74
2023/09/27 06:11:17;;;;;;;21.20;19.10;;;;;;;13.67;93.68;99604.56;224765;1266;139061;-74
2023/09/27 06:16:19;;;;;;;22.10;19.70;;;;;;;13.88;93.78;99606.45;224673;1264;138833;-74
2023/09/27 06:21:22;;;;;;;23.10;20.70;;;;;;;14.11;94.27;99611.52;224768;1267;23908;-74
2023/09/27 06:26:23;;;;;;;25.00;21.90;;;;;;;14.35;94.26;99613.48;224618;1266;138243;-74
2023/09/27 06:31:25;;;;;;;25.10;22.50;;;;;;;14.59;94.26;99613.67;224552;1258;138736;-74
2023/09/27 06:36:34;;;;;;;24.70;21.30;;;;;;;14.80;93.93;99613.94;224595;1271;138867;-74
2023/09/27 06:41:36;;;;;;;23.80;21.50;;;;;;;15.02;94.17;99618.45;224547;1271;138931;-73
2023/09/27 06:46:38;;;;;;;22.50;20.30;;;;;;;15.21;93.93;99627.20;224785;1264;138954;-74
2023/09/27 06:51:50;;;;;;;22.40;20.00;;;;;;;15.38;93.52;99633.96;224739;1274;139160;-73
2023/09/27 06:56:52;;;;;;;23.00;20.70;;;;;;;15.55;93.68;99634.99;224863;1281;22569;-73
2023/09/27 07:01:54;;;;;;;23.00;19.10;;;;;;;15.74;93.64;99636.96;224705;1260;138807;-72
2023/09/27 07:06:56;;;;;;;21.40;18.50;;;;;;;15.95;93.46;99640.30;224726;1279;138793;-73
2023/09/27 07:11:59;;;;;;;42.30;19.60;;;;;;;16.18;93.30;99645.89;224777;1267;138811;-73
2023/09/27 07:17:02;;;;;;;24.50;17.80;;;;;;;16.41;93.16;99651.70;224496;1273;139086;-73
2023/09/27 07:22:07;;;;;;;17.70;15.90;;;;;;;16.63;92.88;99658.66;225039;1263;139226;-72
2023/09/27 07:27:10;;;;;;;17.70;15.80;;;;;;;16.86;92.60;99662.58;225027;1260;23119;-73
2023/09/27 07:32:12;;;;;;;19.20;14.80;;;;;;;17.11;92.63;99664.79;224746;1264;138615;-73
2023/09/27 07:37:14;;;;;;;18.20;14.20;;;;;;;17.35;92.06;99665.88;224652;1271;139486;-72
2023/09/27 07:42:16;;;;;;;17.30;14.80;;;;;;;17.62;91.56;99667.86;224681;1260;139002;-72
2023/09/27 07:47:19;;;;;;;18.90;12.70;;;;;;;17.92;91.38;99663.30;224774;1260;138864;-73
2023/09/27 07:52:21;;;;;;;15.90;11.80;;;;;;;18.20;90.54;99662.36;224707;1273;139812;-71
2023/09/27 07:57:22;;;;;;;15.60;11.80;;;;;;;18.45;89.70;99671.04;224689;1273;26248;-73
2023/09/27 08:02:26;;;;;;;13.60;10.80;;;;;;;18.73;88.85;99674.70;224606;1259;138242;-73
2023/09/27 08:07:28;;;;;;;12.70;10.30;;;;;;;19.00;88.05;99681.03;224693;1264;138576;-72
2023/09/27 08:12:32;;;;;;;12.80;9.50;;;;;;;19.27;87.44;99683.03;224711;1261;138986;-73
2023/09/27 08:17:35;;;;;;;11.80;8.50;;;;;;;19.54;86.79;99680.41;224569;1261;138611;-73
2023/09/27 08:22:39;;;;;;;11.70;8.30;;;;;;;19.81;86.07;99682.48;224743;1281;139287;-73
2023/09/27 08:27:42;;;;;;;11.50;7.80;;;;;;;20.11;85.40;99681.11;224829;1270;138621;-73
2023/09/27 08:32:44;;;;;;;13.30;7.70;;;;;;;20.37;84.55;99681.40;224974;1280;22755;-74
2023/09/27 08:37:47;;;;;;;10.80;7.40;;;;;;;20.64;83.75;99681.58;224850;1269;138262;-73
2023/09/27 08:42:58;;;;;;;14.50;8.00;;;;;;;20.90;83.13;99678.63;224838;1281;138682;-73
2023/09/27 08:48:00;;;;;;;11.30;6.90;;;;;;;21.14;82.62;99674.94;224952;1273;138846;-73
2023/09/27 08:53:02;;;;;;;8.90;6.30;;;;;;;21.36;81.38;99666.04;224979;1276;138744;-72
2023/09/27 08:58:08;;;;;;;11.30;6.00;;;;;;;21.61;80.65;99671.03;225055;1269;138739;-72
2023/09/27 09:03:10;;;;;;;11.00;7.00;;;;;;;21.83;79.78;99668.94;225245;1276;22629;-72
2023/09/27 09:08:13;;;;;;;9.00;7.00;;;;;;;22.00;78.72;99664.12;225014;1273;138678;-72
2023/09/27 09:13:21;;;;;;;11.10;6.90;;;;;;;22.19;77.98;99668.08;224840;1260;139197;-73
2023/09/27 09:18:28;;;;;;;11.60;7.00;;;;;;;22.39;77.08;99662.62;225025;1280;140492;-72
2023/09/27 09:23:36;;;;;;;11.10;7.10;;;;;;;22.62;76.38;99662.90;225296;1279;138645;-72
2023/09/27 09:29:00;;;;;;;14.40;7.30;;;;;;;22.83;75.88;99663.75;225412;1273;138918;-71
2023/09/27 09:34:04;;;;;;;10.80;6.90;;;;;;;23.03;75.29;99661.52;225473;1270;140142;-71
2023/09/27 09:39:13;;;;;;;21.20;7.30;;;;;;;23.20;74.26;99660.64;225382;1279;23059;-71
2023/09/27 09:44:18;;;;;;;;;;;;;;;23.36;73.40;99663.81;225012;1273;137770;-72
2023/09/27 09:49:21;;;;;;;11.10;6.20;;;;;;;23.55;72.12;99659.88;225032;1270;124195;-72
2023/09/27 09:54:41;;;;;;;25.00;7.30;;;;;;;23.73;70.90;99652.66;225029;1266;138324;-72
2023/09/27 10:00:11;;;;;;;11.70;6.30;;;;;;;23.92;70.23;99654.38;224964;1275;138001;-71
2023/09/27 10:05:14;;;;;;;9.70;6.50;;;;;;;24.10;69.30;99653.70;225018;1276;138386;-72
2023/09/27 10:10:21;;;;;;;7.70;6.30;;;;;;;24.25;68.64;99649.18;225194;1273;138267;-71
2023/09/27 10:15:23;;;;;;;8.20;5.90;;;;;;;24.39;68.37;99648.34;225420;1274;23067;-71
2023/09/27 10:20:25;;;;;;;9.70;6.50;;;;;;;24.51;67.86;99645.47;225486;1278;137566;-71
2023/09/27 10:25:32;;;;;;;12.90;6.90;;;;;;;24.64;66.77;99642.00;225479;1270;137538;-71
2023/09/27 10:30:40;;;;;;;12.10;7.40;;;;;;;24.80;66.17;99642.50;225117;1259;138707;-71
2023/09/27 10:35:47;;;;;;;10.70;7.00;;;;;;;24.96;65.51;99640.09;225167;1280;137945;-71
2023/09/27 10:40:50;;;;;;;6.60;6.00;;;;;;;25.12;65.15;99638.67;225024;1278;137852;-72
2023/09/27 10:45:55;;;;;;;10.10;5.80;;;;;;;25.32;63.87;99641.33;225041;1275;138836;-72
2023/09/27 10:50:58;;;;;;;6.10;5.50;;;;;;;25.49;63.62;99640.06;225030;1277;22541;-72
2023/09/27 10:56:01;;;;;;;8.90;6.10;;;;;;;25.57;63.13;99633.80;225089;1270;137609;-72
2023/09/27 11:01:04;;;;;;;9.00;6.20;;;;;;;25.65;62.98;99631.54;225319;1278;137583;-73
2023/09/27 11:06:08;;;;;;;6.90;5.80;;;;;;;25.72;62.50;99626.09;225425;1281;137851;-72
2023/09/27 11:11:14;;;;;;;5.90;5.20;;;;;;;25.79;61.23;99624.21;225284;1273;138646;-74
2023/09/27 11:16:19;;;;;;;6.20;5.60;;;;;;;25.88;59.99;99614.10;225330;1270;137727;-75
2023/09/27 11:21:23;;;;;;;6.60;6.00;;;;;;;25.96;60.65;99605.46;224965;1267;22550;-72
2023/09/27 11:26:28;;;;;;;7.70;5.70;;;;;;;26.01;59.94;99603.34;224937;1280;137577;-72
2023/09/27 11:31:34;;;;;;;6.90;6.00;;;;;;;26.07;59.31;99597.25;224919;1280;137529;-73
2023/09/27 11:36:51;;;;;;;5.90;5.20;;;;;;;26.16;58.98;99589.06;224814;1276;138102;-72
2023/09/27 11:41:58;;;;;;;8.60;6.30;;;;;;;26.24;58.34;99583.44;225047;1273;137812;-73
2023/09/27 11:47:08;;;;;;;7.00;5.50;;;;;;;26.37;58.31;99578.80;225461;1259;137749;-72
2023/09/27 11:52:11;;;;;;;8.60;5.80;;;;;;;26.43;57.76;99574.17;224993;1270;137841;-72
2023/09/27 11:57:13;;;;;;;9.80;6.20;;;;;;;26.45;57.09;99571.85;225045;1273;25353;-73
2023/09/27 12:02:18;;;;;;;10.20;6.10;;;;;;;26.48;56.44;99568.44;225216;1273;137634;-73
2023/09/27 12:07:32;;;;;;;7.20;5.60;;;;;;;26.49;56.19;99564.43;225231;1262;138046;-73
2023/09/27 12:12:34;;;;;;;22.20;7.20;;;;;;;26.52;56.29;99557.16;225268;1279;138093;-72
2023/09/27 12:17:37;;;;;;;9.20;6.20;;;;;;;26.57;56.79;99551.57;225265;1262;138008;-73
2023/09/27 12:22:40;;;;;;;9.00;5.80;;;;;;;26.63;56.27;99543.16;225136;1274;137835;-71
2023/09/27 12:27:42;;;;;;;10.80;5.80;;;;;;;26.66;56.15;99532.79;225136;1266;138040;-73
2023/09/27 12:32:44;;;;;;;8.90;5.10;;;;;;;26.71;55.87;99533.05;225292;1277;22558;-72
2023/09/27 12:37:47;;;;;;;7.70;4.60;;;;;;;26.69;54.93;99524.88;225326;1274;137487;-73
2023/09/27 12:42:50;;;;;;;6.60;4.80;;;;;;;26.70;54.76;99522.16;225287;1275;138612;-72
2023/09/27 12:47:52;;;;;;;6.90;5.00;;;;;;;26.70;54.63;99519.94;225184;1273;138101;-73
2023/09/27 12:52:54;;;;;;;7.20;4.90;;;;;;;26.72;54.86;99519.15;224940;1270;138128;-72
2023/09/27 12:57:56;;;;;;;5.20;4.40;;;;;;;26.72;54.38;99519.54;224884;1257;139209;-73
2023/09/27 13:02:58;;;;;;;5.70;5.00;;;;;;;26.68;53.91;99512.95;225210;1262;23163;-73
2023/09/27 13:08:01;;;;;;;8.40;5.10;;;;;;;26.62;53.51;99503.95;225346;1273;137518;-73
2023/09/27 13:13:03;;;;;;;7.30;5.00;;;;;;;26.57;53.15;99500.38;225253;1278;137804;-72
2023/09/27 13:18:06;;;;;;;7.80;5.20;;;;;;;26.52;52.98;99498.30;225248;1259;138264;-73
2023/09/27 13:23:09;;;;;;;5.80;4.90;;;;;;;26.47;53.11;99485.50;225137;1269;137847;-72
2023/09/27 13:28:11;;;;;;;7.10;5.40;;;;;;;26.47;53.37;99487.45;225271;1265;137788;-73
2023/09/27 13:33:13;;;;;;;6.90;5.20;;;;;;;26.46;53.17;99477.80;225207;1270;22581;-73
2023/09/27 13:38:15;;;;;;;7.10;5.30;;;;;;;26.47;53.04;99471.84;225233;1262;137712;-73
2023/09/27 13:43:17;;;;;;;6.20;5.40;;;;;;;26.46;52.65;99466.96;224949;1266;227039;-70
2023/09/27 13:48:19;;;;;;;6.90;5.10;;;;;;;26.46;52.93;99460.51;225070;1262;137770;-72
2023/09/27 13:53:21;;;;;;;7.90;5.40;;;;;;;26.46;52.65;99458.67;224990;1278;138174;-72
2023/09/27 13:58:23;;;;;;;7.00;5.40;;;;;;;26.46;52.18;99456.05;225221;1274;137977;-72
2023/09/27 14:03:25;;;;;;;7.50;5.10;;;;;;;26.44;52.24;99456.77;225079;1273;25402;-72
2023/09/27 14:08:28;;;;;;;6.70;5.50;;;;;;;26.43;52.53;99447.23;225095;1274;137291;-72
2023/09/27 14:13:30;;;;;;;5.70;4.90;;;;;;;26.40;52.27;99446.23;225283;1278;137585;-72
2023/09/27 14:18:32;;;;;;;6.90;5.10;;;;;;;26.33;51.88;99438.64;225328;1275;137719;-72
2023/09/27 14:23:37;;;;;;;7.10;5.10;;;;;;;26.26;52.06;99436.80;225432;1280;138476;-71
2023/09/27 14:28:39;;;;;;;8.30;5.60;;;;;;;26.23;52.27;99428.02;225475;1276;138826;-72
2023/09/27 14:33:41;;;;;;;8.30;5.20;;;;;;;26.21;52.29;99424.34;225609;1281;138750;-72
2023/09/27 14:38:45;;;;;;;13.20;11.80;;;;;;;26.16;52.22;99420.83;225770;1281;22687;-71
2023/09/27 14:43:47;;;;;;;8.40;5.50;;;;;;;26.08;52.16;99419.88;225596;1278;137847;-72
2023/09/27 14:48:49;;;;;;;6.70;5.00;;;;;;;25.97;51.87;99413.77;225704;1281;137778;-72
2023/09/27 14:53:51;;;;;;;11.30;6.00;;;;;;;25.86;52.19;99413.89;225659;1274;137929;-72
2023/09/27 14:58:54;;;;;;;7.00;5.20;;;;;;;25.77;52.26;99410.16;225660;1281;138003;-72
2023/09/27 15:03:56;;;;;;;9.30;5.40;;;;;;;25.67;52.02;99405.40;225660;1275;138186;-72
2023/09/27 15:08:59;;;;;;;7.70;5.00;;;;;;;25.54;52.47;99398.92;225769;1278;22636;-72
2023/09/27 15:14:01;;;;;;;5.80;5.30;;;;;;;25.43;52.63;99400.98;225662;1278;137492;-72
2023/09/27 15:19:03;;;;;;;11.80;6.40;;;;;;;25.28;53.04;99398.52;225654;1278;138614;-72
2023/09/27 15:24:06;;;;;;;6.90;5.50;;;;;;;25.13;53.18;99394.94;225669;1279;137955;-72
2023/09/27 15:29:07;;;;;;;9.30;5.30;;;;;;;24.96;53.70;99388.66;225598;1257;137980;-72
2023/09/27 15:34:09;;;;;;;7.70;5.30;;;;;;;24.78;54.07;99392.16;225631;1280;138246;-72
2023/09/27 15:39:11;;;;;;;7.20;5.40;;;;;;;24.59;54.42;99397.45;225787;1274;22547;-72
2023/09/27 15:44:13;;;;;;;8.80;5.50;;;;;;;24.39;54.99;99396.02;225697;1281;137441;-72
2023/09/27 15:49:15;;;;;;;8.10;5.60;;;;;;;24.20;55.26;99394.70;225678;1274;137569;-72
2023/09/27 15:54:17;;;;;;;9.50;5.90;;;;;;;24.02;55.47;99386.27;225668;1280;137737;-72
2023/09/27 15:59:21;;;;;;;7.40;6.00;;;;;;;23.82;55.98;99393.60;225601;1280;137747;-71
2023/09/27 16:04:23;;;;;;;8.00;6.00;;;;;;;23.59;56.58;99390.88;225616;1280;137888;-71
2023/09/27 16:09:26;;;;;;;7.20;5.90;;;;;;;23.35;57.17;99390.10;225775;1278;22707;-73
2023/09/27 16:14:32;;;;;;;9.40;5.80;;;;;;;23.11;57.91;99392.63;225691;1280;137662;-72
2023/09/27 16:19:34;;;;;;;9.70;6.40;;;;;;;22.89;58.60;99390.62;225664;1281;137590;-71
2023/09/27 16:24:42;;;;;;;11.10;6.80;;;;;;;22.67;59.21;99382.90;225633;1275;137711;-72
2023/09/27 16:29:44;;;;;;;10.00;6.30;;;;;;;22.43;59.62;99380.23;225565;1278;137893;-72
2023/09/27 16:34:46;;;;;;;14.10;7.90;;;;;;;22.20;60.38;99384.36;225653;1278;138083;-72
2023/09/27 16:39:49;;;;;;;8.10;6.60;;;;;;;21.93;61.06;99379.05;225480;1281;138105;-72
2023/09/27 16:44:54;;;;;;;10.30;8.10;;;;;;;21.65;61.61;99381.46;225612;1281;22602;-72
2023/09/27 16:49:59;;;;;;;12.90;8.60;;;;;;;21.36;62.22;99378.68;225639;1279;137549;-71
2023/09/27 16:55:01;;;;;;;12.60;9.10;;;;;;;21.07;62.94;99377.13;225674;1278;138035;-72
2023/09/27 17:00:06;;;;;;;12.90;9.50;;;;;;;20.79;63.54;99381.23;225683;1281;137874;-72
2023/09/27 17:05:08;;;;;;;10.90;7.60;;;;;;;20.50;64.13;99383.23;225665;1281;137943;-72
2023/09/27 17:10:10;;;;;;;11.60;7.90;;;;;;;20.24;64.71;99384.01;225639;1278;138797;-72
2023/09/27 17:15:15;;;;;;;10.70;8.00;;;;;;;20.01;65.45;99379.04;225734;1281;22539;-72
2023/09/27 17:20:17;;;;;;;11.00;8.30;;;;;;;19.80;65.96;99380.70;225639;1278;138608;-73
2023/09/27 17:25:20;;;;;;;9.80;8.50;;;;;;;19.61;66.37;99383.52;225613;1278;138459;-73
2023/09/27 17:30:22;;;;;;;13.70;8.90;;;;;;;19.46;66.93;99380.88;225649;1275;137986;-72
2023/09/27 17:35:24;;;;;;;12.40;8.60;;;;;;;19.32;67.43;99383.63;225503;1279;138593;-73
2023/09/27 17:40:26;;;;;;;12.90;9.80;;;;;;;19.16;67.74;99378.10;225618;1278;138648;-75
2023/09/27 17:45:28;;;;;;;12.00;8.90;;;;;;;19.02;68.18;99378.19;225634;1281;22650;-73
2023/09/27 17:50:31;;;;;;;11.20;8.60;;;;;;;18.86;68.49;99380.30;225498;1280;138332;-73
2023/09/27 17:55:33;;;;;;;12.70;9.10;;;;;;;18.70;68.81;99375.98;225574;1280;138421;-73
2023/09/27 18:00:35;;;;;;;12.10;9.10;;;;;;;18.55;69.17;99375.79;225571;1281;138798;-72
2023/09/27 18:05:37;;;;;;;13.60;8.40;;;;;;;18.43;69.44;99377.93;225474;1277;138581;-72
2023/09/27 18:10:41;;;;;;;11.00;8.50;;;;;;;18.36;69.80;99379.18;225657;1278;138714;-72
2023/09/27 18:15:46;;;;;;;10.90;8.80;;;;;;;18.26;69.93;99375.94;225495;1280;139203;-72
2023/09/27 18:20:48;;;;;;;13.10;9.00;;;;;;;18.16;70.18;99382.65;225677;1281;22548;-72
2023/09/27 18:25:52;;;;;;;12.10;8.60;;;;;;;18.08;70.54;99383.27;225558;1277;139179;-72
2023/09/27 18:30:54;;;;;;;14.00;9.50;;;;;;;18.01;70.79;99380.13;225599;1280;138437;-72
2023/09/27 18:35:58;;;;;;;9.00;8.10;;;;;;;17.97;71.17;99384.11;225602;1275;138727;-72
2023/09/27 18:41:01;;;;;;;11.70;9.00;;;;;;;17.89;71.31;99384.36;225659;1278;139404;-72
2023/09/27 18:46:04;;;;;;;13.00;8.30;;;;;;;17.81;71.67;99378.55;225504;1280;138763;-72
2023/09/27 18:51:06;;;;;;;12.70;9.60;;;;;;;17.73;71.85;99379.36;225734;1278;22564;-72
2023/09/27 18:56:08;;;;;;;10.50;9.10;;;;;;;17.61;72.02;99374.77;225589;1281;138358;-72
2023/09/27 19:01:10;;;;;;;14.80;10.00;;;;;;;17.48;72.23;99370.58;225550;1281;138605;-72
2023/09/27 19:06:14;;;;;;;13.90;9.60;;;;;;;17.37;72.63;99377.83;225559;1278;138929;-73
2023/09/27 19:11:18;;;;;;;14.70;9.90;;;;;;;17.27;72.98;99377.20;225621;1278;138769;-73
2023/09/27 19:16:20;;;;;;;14.80;10.00;;;;;;;17.18;73.34;99376.20;225538;1281;138578;-73
2023/09/27 19:21:23;;;;;;;16.60;10.30;;;;;;;17.12;73.81;99373.10;225691;1275;22558;-72
2023/09/27 19:26:25;;;;;;;11.10;9.80;;;;;;;17.08;74.25;99372.30;225395;1281;138599;-71
2023/09/27 19:31:28;;;;;;;16.20;11.10;;;;;;;17.05;74.43;99373.15;225502;1281;138566;-72
2023/09/27 19:36:30;;;;;;;12.00;10.70;;;;;;;17.01;74.91;99368.50;225458;1280;138222;-72
2023/09/27 19:41:32;;;;;;;15.80;11.10;;;;;;;16.93;74.90;99369.61;225477;1281;138768;-72
2023/09/27 19:46:34;;;;;;;13.20;11.20;;;;;;;16.85;75.19;99364.81;225497;1281;138960;-72
2023/09/27 19:51:36;;;;;;;15.20;11.00;;;;;;;16.81;75.59;99361.66;225546;1281;138980;-72
2023/09/27 19:56:43;;;;;;;14.40;10.90;;;;;;;16.78;75.83;99361.56;225655;1274;22549;-72
2023/09/27 20:01:45;;;;;;;16.30;12.00;;;;;;;16.72;75.97;99364.52;225604;1278;138435;-72
2023/09/27 20:06:47;;;;;;;14.20;11.60;;;;;;;16.63;76.43;99358.63;225569;1280;138839;-72
2023/09/27 20:11:49;;;;;;;13.00;11.60;;;;;;;16.54;76.52;99353.19;225583;1278;138637;-72
2023/09/27 20:16:52;;;;;;;15.70;11.40;;;;;;;16.48;76.76;99354.08;225537;1281;138873;-72
2023/09/27 20:21:54;;;;;;;15.40;12.40;;;;;;;16.39;77.07;99353.59;225609;1279;138929;-72
2023/09/27 20:26:58;;;;;;;16.90;14.50;;;;;;;16.29;77.24;99355.92;225710;1281;22657;-72
2023/09/27 20:32:00;;;;;;;17.80;12.90;;;;;;;16.19;77.44;99345.54;225612;1275;139178;-72
2023/09/27 20:37:03;;;;;;;14.50;12.10;;;;;;;16.14;77.93;99352.77;225577;1278;139777;-72
2023/09/27 20:42:05;;;;;;;15.30;12.40;;;;;;;16.10;78.26;99348.14;225537;1281;138863;-71
2023/09/27 20:47:07;;;;;;;17.80;12.20;;;;;;;16.08;78.55;99348.44;225443;1281;138820;-72
2023/09/27 20:52:11;;;;;;;14.50;12.60;;;;;;;16.08;78.98;99351.15;225561;1278;138783;-72
2023/09/27 20:57:14;;;;;;;17.50;13.40;;;;;;;16.04;79.01;99353.45;225591;1281;22529;-71
2023/09/27 21:02:16;;;;;;;13.90;12.60;;;;;;;15.98;79.02;99354.66;225513;1281;138725;-72
2023/09/27 21:07:20;;;;;;;18.60;12.90;;;;;;;15.91;79.21;99352.78;225418;1281;139134;-72
2023/09/27 21:12:26;;;;;;;17.70;13.40;;;;;;;15.85;79.35;99356.95;225474;1281;140505;-72
2023/09/27 21:17:28;;;;;;;18.90;13.20;;;;;;;15.84;80.20;99356.21;225420;1281;139180;-74
2023/09/27 21:22:31;;;;;;;17.10;13.60;;;;;;;15.84;80.05;99349.98;225552;1281;138909;-71
2023/09/27 21:27:34;;;;;;;15.00;12.60;;;;;;;15.84;80.25;99345.50;225606;1281;138758;-72
2023/09/27 21:32:36;;;;;;;15.50;13.90;;;;;;;15.86;80.53;99342.60;225680;1281;22602;-71
2023/09/27 21:37:38;;;;;;;19.40;15.30;;;;;;;15.92;80.92;99342.04;225542;1278;138487;-72
2023/09/27 21:42:40;;;;;;;16.90;14.30;;;;;;;15.96;81.13;99340.92;225590;1279;138790;-72
2023/09/27 21:47:42;;;;;;;14.90;13.40;;;;;;;15.99;81.06;99340.23;225562;1278;138946;-73
2023/09/27 21:52:45;;;;;;;15.30;13.60;;;;;;;15.96;80.68;99340.77;225501;1281;138976;-72
2023/09/27 21:57:47;;;;;;;16.60;14.50;;;;;;;15.83;80.58;99343.98;225481;1281;139505;-72
2023/09/27 22:02:49;;;;;;;18.00;14.70;;;;;;;15.71;80.53;99348.89;225629;1278;22547;-72
2023/09/27 22:07:51;;;;;;;18.50;15.90;;;;;;;15.57;80.64;99346.15;225544;1281;138657;-72
2023/09/27 22:12:53;;;;;;;19.60;15.70;;;;;;;15.47;80.95;99349.64;225568;1278;138790;-72
2023/09/27 22:17:55;;;;;;;19.30;16.30;;;;;;;15.39;81.22;99344.30;225498;1281;138945;-72
2023/09/27 22:23:00;;;;;;;17.80;15.80;;;;;;;15.33;81.44;99345.88;225558;1281;138821;-72
2023/09/27 22:28:02;;;;;;;20.60;16.70;;;;;;;15.27;82.01;99343.84;225582;1281;138767;-72
2023/09/27 22:33:09;;;;;;;23.60;17.40;;;;;;;15.21;81.90;99340.92;225632;1279;22543;-72
2023/09/27 22:38:15;;;;;;;20.10;16.00;;;;;;;15.16;82.07;99338.12;225559;1281;139035;-72
2023/09/27 22:43:17;;;;;;;17.70;16.00;;;;;;;15.13;82.60;99332.54;225573;1278;138653;-71
2023/09/27 22:48:19;;;;;;;18.60;16.40;;;;;;;15.11;82.64;99331.02;225559;1270;138940;-72
2023/09/27 22:53:21;;;;;;;18.40;16.10;;;;;;;15.07;82.62;99335.87;225364;1281;139419;-72
2023/09/27 22:58:29;;;;;;;21.50;17.40;;;;;;;14.99;82.97;99332.47;225563;1281;138900;-72